Details From LEIB - Ibiza
To LEAL - Alicante
Flight Number -
Tags generated
Created
Modified
Stats Distance 97 nm / 180 km
Max Altitude 11,300 ft / 3,444 m
Waypoints 3
Social Downloads 0
Likes 0
Share

Download

Looking for another format? Having issues loading an existing format? Contact us
Advertisement - Login to hide

Notes

Basic altitude profile: - Ascent Rate: 2500ft/min - Ascent Speed: 250kts - Cruise Altitude: 35000ft - Cruise Speed: 420kts - Descent Rate: 1500ft/min - Descent Speed: 250kts Options: - Use NATs: yes - Use PACOTS: yes - Use low airways: yes - Use high airways: yes

Route

LEIB BRUNO LEAL

ID Type Via Altitude (ft/m) Position (lat/lon) Dist (leg/tot) Name
O LEIB APT - 0 / 0 38.87290 / 1.37310 - / 0 nm Ibiza
BRUNO FIX - 11,300 / 3,444 38.60830 / 0.48333 44 / 44 nm
O LEAL APT - 0 / 0 38.28220 / -0.55811 52 / 97 nm Alicante

Altitude Profile

Advertisement - Login to hide

LEIB

Details ICAO LEIB (IBZ)
Name Ibiza
Region Spain
Timezone Europe/Madrid (UTC+2.0)
Stats Elevation 24 ft / 7 m (AMSL)
Location 38.872800° 1.373130°
Runways 1
Magnetic Variation 1.026° E

METAR

LEIB 202200Z 11003KT 9999 FEW012 SCT020 15/15 Q1013 NOSIG

Decode

TAF

TAF LEIB 202000Z 2021/2121 VRB04KT 9999 BKN020 TX19/2112Z TN11/2105Z PROB40 TEMPO 2021/2103 4000 RA FEW020TCU PROB40 TEMPO 2021/2106 3000 BR BKN008

Decode

Departure Runways

ID Width Length Bearing (true/mag) Surface Threshold Overrun Markings Lighting
06 148 ft / 45 m 9,160 ft / 2,792 m 61.99° / 60.96° ASPHALT 0 ft / 0 m 0 ft / 0 m PREC-APP CENTERLINE EDGE THRESHOLD CALVERT-ILS REIL-OMNI
24 148 ft / 45 m 9,160 ft / 2,792 m 242.00° / 240.98° ASPHALT 0 ft / 0 m 0 ft / 0 m PREC-APP CENTERLINE EDGE THRESHOLD CALVERT TDZ REIL-OMNI

LEAL

Details ICAO LEAL (ALC)
Name Alicante-Elche "El Altet"
Region Spain
Timezone Europe/Madrid (UTC+2.0)
Stats Elevation 142 ft / 43 m (AMSL)
Location 38.282200° -0.558114°
Runways 1
Magnetic Variation 0.552° E

METAR

LEAL 202200Z 06007KT 9999 FEW005 BKN007 16/15 Q1013 TEMPO 3000 BR BKN005

Decode

TAF

TAF AMD TAF AMD LEAL 202052Z 2020/2118 04006KT 9999 SCT015 TX19/2112Z TN13/2105Z PROB40 TEMPO 2021/2103 3000 BR BKN005 PROB30 TEMPO 2100/2106 BKN010 BECMG 2110/2112 11010KT PROB30 TEMPO 2113/2118 4000 SHRA FEW050TCU

Decode

Destination Runways

ID Width Length Bearing (true/mag) Surface Threshold Overrun Markings Lighting
10 148 ft / 45 m 9,828 ft / 2,996 m 100.08° / 99.53° ASPHALT 0 ft / 0 m 0 ft / 0 m PREC-APP CENTERLINE EDGE THRESHOLD CALVERT-ILS REIL-OMNI
28 148 ft / 45 m 9,828 ft / 2,996 m 280.10° / 279.55° ASPHALT 0 ft / 0 m 0 ft / 0 m PREC-APP CENTERLINE EDGE THRESHOLD CALVERT-ILS REIL-OMNI

Approach Navaids

Runway Type Ident Frequency Range Bearing (true/mag) Slope Elevation
10 DME IAT 110.30 MHz 18 nm / 33 km - - 129 ft / 39 m (AMSL)
10 LOC-ILS IAT 110.30 MHz 18 nm / 33 km 100.09° / 99.54 ° - 29 ft / 9 m (AMSL)
10 GS IAT 110.30 MHz 10 nm / 19 km 100.19° / 99.64 ° 3.00° 129 ft / 39 m (AMSL)

Popular Alternatives